Time;durP1;ratioP1;P1;durP2;ratioP2;P2;SDS_P1;SDS_P2;PMS_P1;PMS_P2;Temp;Humidity;BMP_temperature;BMP_pressure;BME280_temperature;BME280_humidity;BME280_pressure;Samples;Min_cycle;Max_cycle;Signal;HPM_P1;HPM_P2
2022/11/18 00:01:12;;;;;;;7.93;3.30;;;;;;;8.80;100.00;99498.16;4982838;28;20105;-69
2022/11/18 00:03:39;;;;;;;6.65;2.95;;;;;;;8.83;100.00;99504.84;4987908;28;20543;-68
2022/11/18 00:06:09;;;;;;;12.88;2.80;;;;;;;8.84;100.00;99511.69;4972192;28;20046;-68
2022/11/18 00:08:35;;;;;;;11.55;3.03;;;;;;;8.84;100.00;99506.44;4960826;28;20051;-68
2022/11/18 00:11:10;;;;;;;5.03;2.30;;;;;;;8.83;100.00;99500.41;4977277;28;20116;-68
2022/11/18 00:16:22;;;;;;;6.30;2.80;;;;;;;8.85;100.00;99508.09;4980711;28;20058;-68
2022/11/18 00:18:49;;;;;;;5.13;2.20;;;;;;;8.87;100.00;99513.97;4985473;28;20046;-69
2022/11/18 00:21:15;;;;;;;6.50;2.80;;;;;;;8.91;100.00;99517.88;4978816;28;20046;-68
2022/11/18 00:23:41;;;;;;;6.75;2.67;;;;;;;8.94;100.00;99522.78;4967782;28;20050;-69
2022/11/18 00:26:11;;;;;;;6.20;2.70;;;;;;;8.97;100.00;99517.22;4984090;28;20074;-68
2022/11/18 00:28:38;;;;;;;9.00;2.65;;;;;;;8.93;100.00;99533.41;4973895;28;20422;-69
2022/11/18 00:31:09;;;;;;;5.80;2.45;;;;;;;8.90;100.00;99534.56;4985319;28;20050;-68
2022/11/18 00:33:36;;;;;;;6.35;2.28;;;;;;;8.87;100.00;99532.28;4981696;28;20050;-68
2022/11/18 00:36:04;;;;;;;7.82;2.88;;;;;;;8.89;100.00;99540.78;4960782;28;20092;-69
2022/11/18 00:38:31;;;;;;;4.93;2.73;;;;;;;8.82;100.00;99548.47;4981643;28;20054;-69
2022/11/18 00:41:03;;;;;;;10.27;2.53;;;;;;;8.87;100.00;99548.78;4973366;28;20287;-68
2022/11/18 00:43:30;;;;;;;6.07;2.30;;;;;;;8.84;100.00;99546.50;4967898;28;20054;-69
2022/11/18 00:45:56;;;;;;;7.35;2.63;;;;;;;8.87;100.00;99550.59;4977108;28;20050;-69
2022/11/18 00:48:23;;;;;;;6.22;2.63;;;;;;;8.89;100.00;99554.66;4981192;28;20046;-68
2022/11/18 00:50:51;;;;;;;3.67;1.98;;;;;;;8.88;100.00;99560.88;4973639;28;20050;-68
2022/11/18 00:53:18;;;;;;;3.88;2.17;;;;;;;8.88;100.00;99562.69;4978800;28;20758;-69
2022/11/18 00:55:45;;;;;;;6.43;2.88;;;;;;;8.84;100.00;99561.38;4984871;28;20050;-68
2022/11/18 00:58:13;;;;;;;7.38;2.33;;;;;;;8.84;100.00;99561.38;4963369;28;20132;-68
2022/11/18 01:00:44;;;;;;;7.73;2.70;;;;;;;8.85;100.00;99566.44;4982482;28;20058;-69
2022/11/18 01:03:11;;;;;;;6.22;2.47;;;;;;;8.80;100.00;99573.13;4967190;28;20088;-68
2022/11/18 01:05:38;;;;;;;6.78;2.60;;;;;;;8.80;100.00;99570.53;4975702;28;20061;-68
2022/11/18 01:08:06;;;;;;;7.97;2.35;;;;;;;8.82;100.00;99569.41;4973656;28;20074;-68
2022/11/18 01:10:34;;;;;;;6.80;2.75;;;;;;;8.80;100.00;99573.97;4979372;28;20081;-68
2022/11/18 01:13:18;;;;;;;7.15;2.47;;;;;;;8.76;100.00;99574.47;4985456;28;20568;-68
2022/11/18 01:15:56;;;;;;;7.75;2.72;;;;;;;8.79;100.00;99576.75;4957787;28;20134;-69
2022/11/18 01:18:29;;;;;;;5.30;2.38;;;;;;;8.76;100.00;99570.06;4975417;28;20301;-69
2022/11/18 01:21:01;;;;;;;5.15;2.67;;;;;;;8.77;100.00;99583.94;4978832;28;20057;-69
2022/11/18 01:23:27;;;;;;;6.03;2.55;;;;;;;8.72;100.00;99576.56;4975914;28;20082;-68
2022/11/18 01:25:54;;;;;;;7.90;2.72;;;;;;;8.77;100.00;99579.53;4975127;28;20050;-69
2022/11/18 01:28:20;;;;;;;4.55;2.50;;;;;;;8.73;100.00;99580.84;4983415;28;20457;-69
2022/11/18 01:30:49;;;;;;;;;;;;;;;8.83;100.00;99578.88;4976630;28;20449;-68
2022/11/18 01:33:16;;;;;;;7.65;2.47;;;;;;;8.79;100.00;99581.97;4971987;28;19972;-69
2022/11/18 01:35:43;;;;;;;7.65;2.92;;;;;;;8.77;100.00;99583.94;4985362;28;20553;-68
2022/11/18 01:38:12;;;;;;;8.38;3.25;;;;;;;8.75;100.00;99584.09;4977349;28;20093;-69
2022/11/18 01:40:40;;;;;;;10.68;3.00;;;;;;;8.76;100.00;99583.13;4984174;28;20061;-68
2022/11/18 01:43:12;;;;;;;4.78;2.53;;;;;;;8.77;100.00;99578.72;4976464;28;20552;-68
2022/11/18 01:45:42;;;;;;;6.13;2.85;;;;;;;8.79;100.00;99581.97;4974615;28;20054;-69
2022/11/18 01:48:17;;;;;;;8.48;3.17;;;;;;;8.76;100.00;99590.97;4972821;28;20085;-69
2022/11/18 01:51:03;;;;;;;11.68;3.15;;;;;;;8.77;100.00;99602.25;4979507;28;20053;-69
2022/11/18 01:53:34;;;;;;;7.78;3.10;;;;;;;8.80;100.00;99601.91;4983754;28;20050;-68
2022/11/18 01:56:06;;;;;;;5.85;2.70;;;;;;;8.78;100.00;99606.47;4971900;28;20058;-67
2022/11/18 01:58:40;;;;;;;4.50;2.15;;;;;;;8.81;100.00;99614.81;4971847;28;20112;-68
2022/11/18 02:01:07;;;;;;;9.65;2.60;;;;;;;8.87;100.00;99600.28;4973138;28;20050;-69
2022/11/18 02:03:34;;;;;;;6.95;3.08;;;;;;;8.91;100.00;99610.22;4980196;28;20160;-68
2022/11/18 02:06:03;;;;;;;7.60;2.63;;;;;;;8.87;100.00;99614.16;4974983;28;20491;-69
2022/11/18 02:08:30;;;;;;;4.78;2.67;;;;;;;8.90;100.00;99624.31;4973971;28;20062;-69
2022/11/18 02:10:57;;;;;;;9.05;2.72;;;;;;;8.85;100.00;99618.72;4984292;28;20057;-69
2022/11/18 02:13:24;;;;;;;5.70;2.47;;;;;;;8.89;100.00;99632.31;4968216;28;20054;-68
2022/11/18 02:16:10;;;;;;;7.75;3.47;;;;;;;8.89;100.00;99622.66;4977354;28;20061;-68
2022/11/18 02:18:47;;;;;;;4.35;2.30;;;;;;;8.90;100.00;99628.72;4974406;28;20061;-68
2022/11/18 02:21:24;;;;;;;7.15;2.55;;;;;;;8.90;100.00;99633.94;4985703;28;20046;-69
2022/11/18 02:24:03;;;;;;;6.32;2.47;;;;;;;8.94;100.00;99624.78;4975796;28;20428;-69
2022/11/18 02:26:45;;;;;;;5.57;2.35;;;;;;;8.89;100.00;99635.72;4976560;28;20129;-69
2022/11/18 02:29:19;;;;;;;8.70;2.80;;;;;;;8.91;100.00;99632.94;4971294;28;20065;-68
2022/11/18 02:31:56;;;;;;;5.57;2.53;;;;;;;8.91;100.00;99640.81;4977168;28;20051;-68
2022/11/18 02:34:38;;;;;;;7.97;2.72;;;;;;;8.93;100.00;99640.63;4963327;28;20046;-69
2022/11/18 02:37:11;;;;;;;8.13;2.58;;;;;;;8.94;100.00;99643.09;4984013;28;20050;-68
2022/11/18 02:39:53;;;;;;;6.20;2.47;;;;;;;8.94;100.00;99645.72;4980041;28;20053;-68
2022/11/18 02:42:22;;;;;;;5.13;2.00;;;;;;;8.91;100.00;99640.81;4963278;28;20058;-69
2022/11/18 02:44:54;;;;;;;8.80;2.60;;;;;;;8.91;100.00;99646.03;4980796;28;20458;-68
2022/11/18 02:47:22;;;;;;;7.63;2.55;;;;;;;8.93;100.00;99644.06;4977781;28;20058;-69
2022/11/18 02:49:54;;;;;;;5.35;2.50;;;;;;;8.96;100.00;99650.75;4983933;28;20847;-68
2022/11/18 02:52:22;;;;;;;6.93;2.13;;;;;;;8.96;100.00;99656.81;4974701;28;20054;-69
2022/11/18 02:54:50;;;;;;;5.38;2.25;;;;;;;8.94;100.00;99653.56;4979748;28;20042;-68
2022/11/18 02:57:19;;;;;;;4.72;2.65;;;;;;;8.95;100.00;99657.00;4979952;28;20056;-68
2022/11/18 02:59:46;;;;;;;8.10;2.33;;;;;;;8.89;100.00;99653.22;4979746;28;20692;-68
2022/11/18 03:02:17;;;;;;;5.97;2.17;;;;;;;8.92;100.00;99655.53;4982274;28;20050;-69
2022/11/18 03:04:50;;;;;;;6.22;2.17;;;;;;;8.95;100.00;99663.03;4977868;28;20061;-69
2022/11/18 03:07:34;;;;;;;6.22;2.38;;;;;;;8.97;100.00;99662.88;4982850;28;20461;-68
2022/11/18 03:10:02;;;;;;;7.05;2.20;;;;;;;8.96;100.00;99669.06;4964898;28;20782;-69
2022/11/18 03:12:57;;;;;;;6.72;2.80;;;;;;;9.00;100.00;99670.41;4974377;28;20598;-68
2022/11/18 03:15:37;;;;;;;6.95;2.47;;;;;;;9.00;100.00;99670.41;4972359;28;20402;-68
2022/11/18 03:18:37;;;;;;;7.78;2.38;;;;;;;9.01;100.00;99672.81;4981523;28;20672;-69
2022/11/18 03:21:19;;;;;;;7.20;2.38;;;;;;;9.01;100.00;99677.25;4976240;28;20039;-68
2022/11/18 03:23:53;;;;;;;3.78;2.20;;;;;;;9.02;100.00;99686.75;4966916;28;20043;-69
2022/11/18 03:26:26;;;;;;;6.95;2.55;;;;;;;9.00;100.00;99680.88;4977678;28;20058;-68
2022/11/18 03:29:17;;;;;;;7.97;2.72;;;;;;;9.05;100.00;99692.44;4980895;28;20058;-68
2022/11/18 03:31:49;;;;;;;6.28;2.40;;;;;;;9.05;100.00;99689.00;4976533;28;20046;-69
2022/11/18 03:34:26;;;;;;;6.25;2.35;;;;;;;9.10;100.00;99691.97;4973425;28;20054;-68
2022/11/18 03:36:56;;;;;;;7.15;3.00;;;;;;;9.13;100.00;99696.84;4983874;28;20046;-69
2022/11/18 03:39:30;;;;;;;6.00;2.85;;;;;;;9.17;100.00;99705.19;4974865;28;20058;-69
2022/11/18 03:42:09;;;;;;;5.07;1.98;;;;;;;9.23;100.00;99707.16;4986563;28;20050;-69
2022/11/18 03:44:40;;;;;;;7.85;3.58;;;;;;;9.23;100.00;99707.16;4975045;28;20322;-68
2022/11/18 03:47:16;;;;;;;6.38;2.83;;;;;;;9.24;100.00;99709.59;4984440;28;20102;-68
2022/11/18 03:49:48;;;;;;;7.40;3.00;;;;;;;9.26;100.00;99712.88;4971456;28;20077;-68
2022/11/18 03:52:18;;;;;;;5.63;2.80;;;;;;;9.27;100.00;99713.69;4987924;28;20054;-68
2022/11/18 03:54:49;;;;;;;8.10;3.22;;;;;;;9.24;100.00;99714.84;4970648;28;20051;-68
2022/11/18 03:57:30;;;;;;;9.65;3.08;;;;;;;9.27;100.00;99717.16;4985698;28;20057;-69
2022/11/18 04:00:09;;;;;;;6.10;3.15;;;;;;;9.27;100.00;99718.91;4967291;28;20054;-69
2022/11/18 04:02:37;;;;;;;9.57;3.40;;;;;;;9.28;100.00;99720.56;4976701;28;20054;-68
2022/11/18 04:05:07;;;;;;;5.18;2.45;;;;;;;9.30;100.00;99726.47;4975644;28;20054;-68
2022/11/18 04:07:48;;;;;;;4.57;2.63;;;;;;;9.27;100.00;99729.38;4983948;28;20149;-68
2022/11/18 04:10:18;;;;;;;8.07;3.42;;;;;;;9.29;100.00;99733.50;4983558;28;20050;-68
2022/11/18 04:12:52;;;;;;;9.02;3.05;;;;;;;9.32;100.00;99731.53;4976049;28;20085;-68
2022/11/18 04:15:19;;;;;;;6.95;2.85;;;;;;;9.29;100.00;99741.34;4979353;28;20450;-68
2022/11/18 04:17:45;;;;;;;5.22;2.75;;;;;;;9.31;100.00;99743.81;4971920;28;20054;-69
2022/11/18 04:20:19;;;;;;;8.38;3.05;;;;;;;9.35;100.00;99739.88;4988714;28;20060;-70
2022/11/18 04:22:45;;;;;;;7.72;2.88;;;;;;;9.34;100.00;99747.88;4961982;28;20110;-68
2022/11/18 04:25:12;;;;;;;6.97;2.65;;;;;;;9.36;100.00;99745.91;4978230;28;20058;-69
2022/11/18 04:27:38;;;;;;;5.82;2.50;;;;;;;9.35;100.00;99752.13;4981786;28;20046;-68
2022/11/18 04:30:06;;;;;;;5.43;2.75;;;;;;;9.40;100.00;99747.22;4966192;28;20058;-69
2022/11/18 04:32:33;;;;;;;7.55;2.35;;;;;;;9.40;100.00;99762.94;4986632;28;20081;-68
2022/11/18 04:34:59;;;;;;;6.60;2.83;;;;;;;9.37;100.00;99756.22;4975914;28;20050;-68
2022/11/18 04:37:25;;;;;;;7.97;2.88;;;;;;;9.38;100.00;99762.28;4982005;28;20053;-69
2022/11/18 04:39:52;;;;;;;9.18;2.97;;;;;;;9.38;100.00;99768.31;4976053;28;20442;-69
2022/11/18 04:42:18;;;;;;;8.35;3.20;;;;;;;9.37;100.00;99766.69;4968609;28;20494;-68
2022/11/18 04:44:45;;;;;;;9.05;2.88;;;;;;;9.39;100.00;99774.38;4982111;28;20050;-68
2022/11/18 04:47:11;;;;;;;6.57;2.63;;;;;;;9.40;100.00;99771.59;4978416;28;20057;-69
2022/11/18 04:49:37;;;;;;;5.32;2.78;;;;;;;9.41;100.00;99775.84;4983135;28;20058;-68
2022/11/18 04:52:04;;;;;;;9.50;3.25;;;;;;;9.40;100.00;99783.88;4979772;28;20050;-68
2022/11/18 04:54:31;;;;;;;7.65;2.72;;;;;;;9.40;100.00;99784.69;4980799;28;20054;-68
2022/11/18 04:56:57;;;;;;;6.20;2.88;;;;;;;9.45;100.00;99787.63;4978749;28;20053;-69
2022/11/18 04:59:26;;;;;;;9.30;2.88;;;;;;;9.49;100.00;99794.16;4978523;28;20086;-69
2022/11/18 05:01:53;;;;;;;9.48;3.05;;;;;;;9.49;100.00;99791.56;4979755;28;20051;-69
2022/11/18 05:04:23;;;;;;;4.72;3.00;;;;;;;9.52;100.00;99797.44;4974230;28;20058;-69
2022/11/18 05:06:50;;;;;;;6.97;2.97;;;;;;;9.50;100.00;99798.41;4977757;28;20062;-70
2022/11/18 05:09:17;;;;;;;7.57;3.13;;;;;;;9.53;100.00;99799.09;4969565;28;20046;-69
2022/11/18 05:14:30;;;;;;;5.95;3.28;;;;;;;9.55;100.00;99803.16;4972489;28;20043;-68
2022/11/18 05:16:58;;;;;;;10.98;4.00;;;;;;;9.57;100.00;99810.88;4977899;28;20065;-68
2022/11/18 05:19:25;;;;;;;8.15;3.03;;;;;;;9.56;100.00;99810.03;4976893;28;20182;-68
2022/11/18 05:21:52;;;;;;;6.55;2.95;;;;;;;9.56;100.00;99815.25;4973098;28;20060;-68
2022/11/18 05:24:19;;;;;;;8.95;3.72;;;;;;;9.55;100.00;99818.06;4978120;28;20728;-68
2022/11/18 05:26:46;;;;;;;6.50;3.20;;;;;;;9.53;100.00;99820.84;4972311;28;20085;-67
2022/11/18 05:29:12;;;;;;;7.97;3.08;;;;;;;9.53;100.00;99820.03;4983794;28;20082;-68
2022/11/18 05:31:38;;;;;;;5.80;3.45;;;;;;;9.52;100.00;99816.56;4985785;28;20086;-68
2022/11/18 05:34:05;;;;;;;7.03;3.00;;;;;;;9.53;100.00;99822.66;4977885;28;20411;-68
2022/11/18 05:36:31;;;;;;;7.95;3.33;;;;;;;9.50;100.00;99818.53;4979254;28;20053;-68
2022/11/18 05:38:58;;;;;;;7.47;3.13;;;;;;;9.52;100.00;99821.81;4970221;28;20058;-67
2022/11/18 05:44:10;;;;;;;7.97;3.20;;;;;;;9.48;100.00;99828.34;4970501;28;20046;-68
2022/11/18 05:46:37;;;;;;;7.40;3.25;;;;;;;9.45;100.00;99834.75;4983039;28;20054;-68
2022/11/18 05:49:03;;;;;;;6.43;3.47;;;;;;;9.43;100.00;99841.13;4985748;28;20052;-66
2022/11/18 05:51:30;;;;;;;7.88;2.78;;;;;;;9.37;100.00;99841.75;4972350;28;20054;-67
2022/11/18 05:53:56;;;;;;;7.93;3.33;;;;;;;9.40;100.00;99847.50;4979332;28;20048;-68
2022/11/18 05:56:28;;;;;;;6.72;2.50;;;;;;;9.44;100.00;99840.94;4977386;28;20438;-67
2022/11/18 05:58:54;;;;;;;6.72;2.83;;;;;;;9.41;100.00;99840.44;4982807;28;20054;-67
2022/11/18 06:01:33;;;;;;;7.05;2.70;;;;;;;9.43;100.00;99844.56;4975997;28;20060;-67
2022/11/18 06:04:03;;;;;;;7.05;3.20;;;;;;;9.39;100.00;99847.66;4966084;28;20488;-68
2022/11/18 06:06:29;;;;;;;6.88;3.22;;;;;;;9.37;100.00;99853.06;4970682;28;20054;-68
2022/11/18 06:09:03;;;;;;;8.35;3.22;;;;;;;9.39;100.00;99856.34;4982221;28;20072;-68
2022/11/18 06:11:36;;;;;;;8.35;3.05;;;;;;;9.33;100.00;99864.84;4978047;28;20066;-67
2022/11/18 06:14:09;;;;;;;10.45;3.28;;;;;;;9.36;100.00;99864.50;4978746;28;20051;-67
2022/11/18 06:16:39;;;;;;;6.75;2.95;;;;;;;9.36;100.00;99866.31;4975950;28;20062;-67
2022/11/18 06:19:06;;;;;;;7.75;3.17;;;;;;;9.28;100.00;99869.72;4967824;28;20116;-67
2022/11/18 06:21:33;;;;;;;4.95;2.75;;;;;;;9.21;100.00;99866.94;4953674;28;20047;-67
2022/11/18 06:24:01;;;;;;;6.78;3.17;;;;;;;9.20;100.00;99877.56;4976640;28;20050;-68
2022/11/18 06:26:28;;;;;;;6.03;2.70;;;;;;;9.17;100.00;99872.66;4983736;28;20046;-68
2022/11/18 06:28:55;;;;;;;5.72;2.92;;;;;;;9.14;100.00;99883.44;4984955;28;20047;-68
2022/11/18 06:31:22;;;;;;;6.70;2.83;;;;;;;9.08;100.00;99890.94;4975520;28;20058;-68
2022/11/18 06:33:48;;;;;;;7.75;3.20;;;;;;;9.05;100.00;99895.69;4981162;28;20104;-68
2022/11/18 06:36:14;;;;;;;5.43;2.35;;;;;;;8.98;100.00;99897.31;4975937;28;20054;-68
2022/11/18 06:38:41;;;;;;;4.68;2.60;;;;;;;8.91;100.00;99902.34;4966995;28;20058;-68
2022/11/18 06:41:07;;;;;;;6.60;2.78;;;;;;;8.85;100.00;99909.00;4972042;28;20065;-67
2022/11/18 06:43:40;;;;;;;9.43;5.90;;;;;;;8.79;100.00;99908.84;4968115;28;20380;-68
2022/11/18 06:48:58;;;;;;;15.18;9.85;;;;;;;8.65;100.00;99908.44;4980232;28;20050;-67
2022/11/18 06:51:25;;;;;;;10.07;5.60;;;;;;;8.60;100.00;99910.69;4983817;28;20073;-69
2022/11/18 06:53:52;;;;;;;8.02;3.72;;;;;;;8.56;100.00;99924.22;4973864;28;20050;-68
2022/11/18 06:56:20;;;;;;;6.57;3.40;;;;;;;8.56;100.00;99926.84;4983008;28;20518;-68
2022/11/18 06:58:47;;;;;;;6.28;2.75;;;;;;;8.45;100.00;99928.75;4961915;28;20369;-68
2022/11/18 07:01:16;;;;;;;6.38;2.83;;;;;;;8.45;100.00;99931.38;4977982;28;20053;-68
2022/11/18 07:03:45;;;;;;;4.47;2.65;;;;;;;8.42;100.00;99938.69;4976139;28;20062;-68
2022/11/18 07:06:14;;;;;;;4.43;2.30;;;;;;;8.39;100.00;99945.03;4980073;28;20525;-68
2022/11/18 07:08:41;;;;;;;6.40;3.00;;;;;;;8.33;100.00;99945.66;4984109;28;20054;-67
2022/11/18 07:11:11;;;;;;;5.97;2.75;;;;;;;8.29;100.00;99947.75;4972283;28;20058;-68
2022/11/18 07:13:38;;;;;;;4.18;2.80;;;;;;;8.23;100.00;99953.59;4977168;28;20051;-67
2022/11/18 07:16:29;;;;;;;3.72;2.20;;;;;;;8.23;100.00;99960.56;4969394;28;20042;-67
2022/11/18 07:18:55;;;;;;;5.75;2.88;;;;;;;8.14;100.00;99964.94;4979361;28;20061;-68
2022/11/18 07:21:27;;;;;;;4.95;2.47;;;;;;;8.14;100.00;99959.72;4977257;28;20065;-68
2022/11/18 07:23:55;;;;;;;6.82;2.65;;;;;;;8.09;100.00;99970.59;4968110;28;20050;-67
2022/11/18 07:26:21;;;;;;;4.63;2.45;;;;;;;8.01;100.00;99980.97;4972993;28;20794;-67
2022/11/18 07:28:48;;;;;;;7.40;2.53;;;;;;;8.01;100.00;99977.56;4972598;28;20046;-67
2022/11/18 07:31:17;;;;;;;7.10;2.60;;;;;;;8.03;100.00;99978.22;4973564;28;20077;-68
2022/11/18 07:33:45;;;;;;;4.95;2.50;;;;;;;8.01;100.00;99988.00;4973065;28;20056;-68
2022/11/18 07:36:17;;;;;;;7.03;3.13;;;;;;;8.00;100.00;99988.97;4974560;28;20081;-68
2022/11/18 07:38:44;;;;;;;7.13;4.65;;;;;;;7.94;100.00;99990.41;4972013;28;20058;-67
2022/11/18 07:41:13;;;;;;;7.32;4.63;;;;;;;7.96;100.00;99991.06;4969023;28;20047;-67
2022/11/18 07:43:40;;;;;;;9.45;4.80;;;;;;;7.93;100.00;99996.56;4964828;28;20487;-67
2022/11/18 07:46:23;;;;;;;6.75;4.05;;;;;;;7.99;100.00;100008.22;4969811;28;20396;-68
2022/11/18 07:48:52;;;;;;;6.25;3.50;;;;;;;7.97;100.00;100010.97;4980057;28;20080;-67
2022/11/18 07:51:22;;;;;;;5.03;3.00;;;;;;;7.97;100.00;100010.97;4973588;28;20143;-68
2022/11/18 07:53:49;;;;;;;5.72;3.10;;;;;;;7.95;100.00;100012.09;4974520;28;20054;-67
2022/11/18 07:56:16;;;;;;;9.57;3.50;;;;;;;7.97;100.00;100018.81;4972550;28;20430;-68
2022/11/18 07:58:44;;;;;;;7.80;3.35;;;;;;;7.98;100.00;100025.69;4985389;28;20061;-67
2022/11/18 08:01:12;;;;;;;5.55;2.55;;;;;;;7.99;100.00;100029.13;4977556;28;20074;-67
2022/11/18 08:03:39;;;;;;;6.57;2.92;;;;;;;7.98;100.00;100040.50;4981741;28;20589;-68
2022/11/18 08:06:07;;;;;;;6.10;3.10;;;;;;;7.97;100.00;100036.28;4979604;28;20050;-68
2022/11/18 08:08:35;;;;;;;7.38;3.05;;;;;;;8.01;100.00;100042.84;4976649;28;20058;-67
2022/11/18 08:11:05;;;;;;;8.15;3.40;;;;;;;7.99;100.00;100039.56;4983341;28;20066;-67
2022/11/18 08:13:32;;;;;;;6.03;3.20;;;;;;;8.02;100.00;100049.72;4972070;28;20066;-67
2022/11/18 08:15:58;;;;;;;6.88;3.33;;;;;;;8.02;100.00;100054.94;4988374;28;20050;-68
2022/11/18 08:18:27;;;;;;;5.45;3.35;;;;;;;8.06;100.00;100049.25;4974785;28;20055;-67
2022/11/18 08:20:53;;;;;;;;;;;;;;;8.08;100.00;100054.34;4978380;28;20061;-67
2022/11/18 08:23:20;;;;;;;10.10;3.08;;;;;;;8.08;100.00;100051.75;4975938;28;20146;-67
2022/11/18 08:25:46;;;;;;;6.60;3.08;;;;;;;8.09;100.00;100055.97;4961421;28;20050;-67
2022/11/18 08:28:13;;;;;;;5.95;2.95;;;;;;;8.20;100.00;100060.16;4970972;28;20058;-66
2022/11/18 08:30:40;;;;;;;8.50;3.30;;;;;;;8.21;100.00;100053.97;4981418;28;20114;-67
2022/11/18 08:33:06;;;;;;;5.05;2.78;;;;;;;8.21;100.00;100060.03;4982594;28;20058;-67
2022/11/18 08:35:33;;;;;;;10.20;4.25;;;;;;;8.26;100.00;100064.78;4975527;28;20053;-67
2022/11/18 08:37:59;;;;;;;8.93;4.60;;;;;;;8.31;100.00;100073.81;4979015;28;20050;-67
2022/11/18 08:40:26;;;;;;;15.15;3.92;;;;;;;8.29;100.00;100073.16;4980241;28;20065;-68
2022/11/18 08:42:52;;;;;;;9.15;3.47;;;;;;;8.33;100.00;100073.69;4972942;28;20053;-67
2022/11/18 08:45:18;;;;;;;5.72;3.03;;;;;;;8.37;100.00;100076.78;4973199;28;20043;-68
2022/11/18 08:47:45;;;;;;;8.05;3.67;;;;;;;8.36;100.00;100070.75;4977553;28;20060;-67
2022/11/18 08:50:11;;;;;;;8.05;2.63;;;;;;;8.44;100.00;100075.25;4984204;28;20616;-67
2022/11/18 08:52:38;;;;;;;8.27;3.38;;;;;;;8.41;100.00;100080.75;4983139;28;20046;-67
2022/11/18 08:55:04;;;;;;;11.75;3.83;;;;;;;8.43;100.00;100076.25;4973785;28;20071;-67
2022/11/18 08:57:31;;;;;;;4.85;2.90;;;;;;;8.44;100.00;100083.09;4970580;28;20058;-68
2022/11/18 08:59:57;;;;;;;6.95;3.20;;;;;;;8.47;100.00;100080.19;4979906;28;20050;-67
2022/11/18 09:02:24;;;;;;;7.30;3.30;;;;;;;8.52;100.00;100083.16;4985073;28;20422;-67
2022/11/18 09:04:51;;;;;;;6.40;3.03;;;;;;;8.56;100.00;100081.88;4975559;28;20058;-67
2022/11/18 09:07:19;;;;;;;11.38;3.67;;;;;;;8.58;100.00;100095.63;4982817;28;20073;-68
2022/11/18 09:09:46;;;;;;;9.15;3.80;;;;;;;8.57;100.00;100098.41;4987337;28;20054;-68
2022/11/18 09:12:13;;;;;;;7.95;3.65;;;;;;;8.62;100.00;100094.34;4977282;28;20049;-67
2022/11/18 09:14:44;;;;;;;10.82;3.63;;;;;;;8.69;100.00;100097.19;4981623;28;20046;-67
2022/11/18 09:17:30;;;;;;;8.35;3.20;;;;;;;8.70;100.00;100106.66;4963542;28;20053;-67
2022/11/18 09:19:56;;;;;;;8.45;3.53;;;;;;;8.73;100.00;100106.38;4985798;28;20046;-67
2022/11/18 09:22:23;;;;;;;9.70;3.63;;;;;;;8.73;100.00;100114.22;4981489;28;20062;-68
2022/11/18 09:24:49;;;;;;;8.35;3.70;;;;;;;8.78;100.00;100114.59;4979539;28;20046;-67
2022/11/18 09:27:16;;;;;;;7.13;3.80;;;;;;;8.75;100.00;100117.50;4980546;28;20054;-68
2022/11/18 09:29:44;;;;;;;9.45;3.72;;;;;;;8.75;100.00;100114.06;4981386;28;20054;-67
2022/11/18 09:32:10;;;;;;;10.32;3.67;;;;;;;8.71;100.00;100119.59;4981482;28;20852;-66
2022/11/18 09:34:37;;;;;;;7.90;3.80;;;;;;;8.75;100.00;100120.13;4979387;28;20054;-67
2022/11/18 09:37:05;;;;;;;5.50;3.20;;;;;;;8.85;100.00;100125.25;4985827;28;20061;-66
2022/11/18 09:39:35;;;;;;;7.82;3.45;;;;;;;8.88;100.00;100127.59;4977859;28;20061;-67
2022/11/18 09:42:11;;;;;;;9.38;3.80;;;;;;;8.91;100.00;100132.50;4984586;28;20077;-67
2022/11/18 09:44:41;;;;;;;6.10;3.00;;;;;;;8.93;100.00;100134.97;4969765;28;20046;-66
2022/11/18 09:47:25;;;;;;;9.77;3.92;;;;;;;9.00;100.00;100136.00;4976148;28;20046;-66
2022/11/18 09:49:55;;;;;;;7.15;3.60;;;;;;;8.97;100.00;100142.34;4986695;28;20054;-67
2022/11/18 09:52:37;;;;;;;10.13;3.75;;;;;;;9.08;100.00;100141.28;4980487;28;20054;-65
2022/11/18 09:55:12;;;;;;;11.25;4.20;;;;;;;9.14;100.00;100145.09;4959974;28;20065;-66
2022/11/18 09:57:51;;;;;;;14.23;3.85;;;;;;;9.19;100.00;100148.06;4970586;28;20057;-66
2022/11/18 10:00:22;;;;;;;11.68;3.38;;;;;;;9.18;100.00;100147.25;4979894;28;20058;-66
2022/11/18 10:03:05;;;;;;;9.20;3.72;;;;;;;9.22;100.00;100153.00;4977156;28;20434;-67
2022/11/18 10:05:37;;;;;;;6.55;3.00;;;;;;;9.27;100.00;100155.94;4980987;28;20051;-67
2022/11/18 10:08:19;;;;;;;10.43;3.55;;;;;;;9.19;100.00;100161.13;4969946;28;20088;-66
2022/11/18 10:10:53;;;;;;;9.40;4.20;;;;;;;9.27;100.00;100162.03;4962627;28;20059;-67
2022/11/18 10:13:42;;;;;;;11.45;4.10;;;;;;;9.33;100.00;100165.81;4971679;28;20395;-67
2022/11/18 10:16:26;;;;;;;7.72;3.60;;;;;;;9.31;100.00;100167.78;4973150;28;20059;-68
2022/11/18 10:19:04;;;;;;;8.07;3.58;;;;;;;9.28;100.00;100175.94;4981282;28;20046;-67
2022/11/18 10:21:46;;;;;;;10.23;3.30;;;;;;;9.33;100.00;100176.31;4983833;28;20557;-68
2022/11/18 10:24:18;;;;;;;8.18;3.72;;;;;;;9.41;100.00;100170.25;4985284;28;20046;-67
2022/11/18 10:26:46;;;;;;;7.05;3.03;;;;;;;9.43;100.00;100173.56;4970944;28;20081;-68
2022/11/18 10:29:12;;;;;;;7.63;3.55;;;;;;;9.48;100.00;100176.53;4974267;28;20062;-67
2022/11/18 10:31:52;;;;;;;7.35;3.50;;;;;;;9.57;100.00;100183.47;4971461;28;20133;-67
2022/11/18 10:34:20;;;;;;;8.93;3.72;;;;;;;9.62;100.00;100181.19;4982926;28;20491;-67
2022/11/18 10:37:04;;;;;;;10.02;3.75;;;;;;;9.71;100.00;100182.06;4972016;28;20057;-67
2022/11/18 10:39:31;;;;;;;7.03;3.50;;;;;;;9.76;100.00;100186.81;4977506;28;20129;-68
2022/11/18 10:42:03;;;;;;;5.90;3.05;;;;;;;9.84;100.00;100185.06;4972071;28;20065;-67
2022/11/18 10:44:34;;;;;;;8.25;3.92;;;;;;;9.81;100.00;100190.63;4976267;28;20050;-67
2022/11/18 10:47:27;;;;;;;9.93;3.15;;;;;;;9.89;100.00;100188.03;4977665;28;20048;-67
2022/11/18 10:49:59;;;;;;;8.63;3.60;;;;;;;9.90;100.00;100188.88;4974618;28;20143;-67
2022/11/18 10:52:28;;;;;;;8.88;3.42;;;;;;;9.96;100.00;100192.63;4981372;28;20521;-67
2022/11/18 10:55:13;;;;;;;11.00;4.10;;;;;;;9.98;100.00;100188.09;4967933;28;20082;-68
2022/11/18 10:57:44;;;;;;;7.65;3.65;;;;;;;9.90;100.00;100189.69;4979199;28;20054;-68
2022/11/18 11:00:35;;;;;;;7.03;3.50;;;;;;;10.00;100.00;100192.19;4975301;28;20391;-67
2022/11/18 11:03:30;;;;;;;10.18;4.00;;;;;;;10.09;100.00;100193.84;4984315;28;20050;-67
2022/11/18 11:06:18;;;;;;;10.30;4.28;;;;;;;10.23;100.00;100195.06;4971902;28;20089;-69
2022/11/18 11:08:49;;;;;;;7.97;3.70;;;;;;;10.27;100.00;100196.38;4977783;28;20047;-68
2022/11/18 11:11:25;;;;;;;12.85;4.85;;;;;;;10.38;100.00;100205.75;4966058;28;20046;-67
2022/11/18 11:13:57;;;;;;;7.80;3.88;;;;;;;10.42;100.00;100203.63;4981279;28;20057;-67
2022/11/18 11:16:26;;;;;;;10.48;4.05;;;;;;;10.54;100.00;100198.91;4972966;28;20054;-67
2022/11/18 11:18:57;;;;;;;8.35;3.75;;;;;;;10.55;100.00;100201.38;4970318;28;20050;-68
2022/11/18 11:21:26;;;;;;;10.00;3.70;;;;;;;10.49;100.00;100207.25;4976598;28;20738;-68
2022/11/18 11:23:53;;;;;;;9.52;3.92;;;;;;;10.54;100.00;100204.16;4974161;28;20057;-68
2022/11/18 11:26:31;;;;;;;9.73;3.42;;;;;;;10.45;100.00;100211.19;4983453;28;20499;-68
2022/11/18 11:29:33;;;;;;;13.35;4.00;;;;;;;10.54;100.00;100204.16;4969627;28;20082;-67
2022/11/18 11:32:26;;;;;;;6.72;3.40;;;;;;;10.65;100.00;100214.34;4982662;28;20509;-69
2022/11/18 11:35:20;;;;;;;8.23;4.10;;;;;;;10.63;100.00;100208.44;4972042;28;20054;-68
2022/11/18 11:37:54;;;;;;;7.70;3.85;;;;;;;10.68;100.00;100217.47;4976288;28;20070;-68
2022/11/18 11:40:35;;;;;;;11.38;3.72;;;;;;;10.72;100.00;100217.94;4971237;28;20065;-68
2022/11/18 11:43:30;;;;;;;8.95;4.18;;;;;;;10.76;100.00;100214.03;4975111;28;20567;-68
2022/11/18 11:46:26;;;;;;;8.35;4.22;;;;;;;10.75;100.00;100203.69;4981552;28;20081;-68
2022/11/18 11:49:17;;;;;;;9.95;3.65;;;;;;;10.85;100.00;100205.16;4980277;28;20101;-68
2022/11/18 11:51:49;;;;;;;9.63;3.78;;;;;;;10.92;100.00;100207.97;4957878;28;20057;-68
2022/11/18 11:54:37;;;;;;;11.23;3.70;;;;;;;11.06;100.00;100206.50;4983453;28;20065;-68
2022/11/18 11:57:44;;;;;;;11.50;4.03;;;;;;;10.99;100.00;100211.56;4984816;28;20101;-68
2022/11/18 12:00:13;;;;;;;10.05;3.67;;;;;;;11.00;100.00;100213.22;4982674;28;20789;-68